sensor_id;sensor_type;location;lat;lon;timestamp;pressure;altitude;pressure_sealevel;temperature;humidity
11212;BME280;5663;50.864;12.096;2023-04-19T00:00:05;100255.97;;;11.31;79.68
11212;BME280;5663;50.864;12.096;2023-04-19T00:02:35;100255.13;;;11.31;79.69
11212;BME280;5663;50.864;12.096;2023-04-19T00:05:04;100253.34;;;11.31;79.69
11212;BME280;5663;50.864;12.096;2023-04-19T00:07:31;100231.44;;;11.15;79.77
11212;BME280;5663;50.864;12.096;2023-04-19T00:10:00;100243.06;;;11.28;79.54
11212;BME280;5663;50.864;12.096;2023-04-19T00:12:30;100248.34;;;11.27;79.52
11212;BME280;5663;50.864;12.096;2023-04-19T00:14:59;100243.34;;;11.21;79.57
11212;BME280;5663;50.864;12.096;2023-04-19T00:17:26;100244.22;;;11.21;79.33
11212;BME280;5663;50.864;12.096;2023-04-19T00:19:56;100232.91;;;11.22;78.95
11212;BME280;5663;50.864;12.096;2023-04-19T00:22:24;100246.66;;;11.26;78.70
11212;BME280;5663;50.864;12.096;2023-04-19T00:24:52;100242.28;;;11.26;78.57
11212;BME280;5663;50.864;12.096;2023-04-19T00:27:21;100240.44;;;11.28;78.39
11212;BME280;5663;50.864;12.096;2023-04-19T00:29:50;100215.16;;;11.10;78.26
11212;BME280;5663;50.864;12.096;2023-04-19T00:32:19;100230.19;;;11.25;78.20
11212;BME280;5663;50.864;12.096;2023-04-19T00:34:47;100225.00;;;11.24;78.26
11212;BME280;5663;50.864;12.096;2023-04-19T00:37:15;100226.88;;;11.20;78.33
11212;BME280;5663;50.864;12.096;2023-04-19T00:39:43;100216.84;;;11.11;78.10
11212;BME280;5663;50.864;12.096;2023-04-19T00:42:11;100228.72;;;11.18;78.22
11212;BME280;5663;50.864;12.096;2023-04-19T00:44:39;100227.03;;;11.17;77.89
11212;BME280;5663;50.864;12.096;2023-04-19T00:47:09;100222.84;;;11.13;78.06
11212;BME280;5663;50.864;12.096;2023-04-19T00:49:37;100222.06;;;11.11;77.72
11212;BME280;5663;50.864;12.096;2023-04-19T00:52:04;100223.75;;;11.12;77.65
11212;BME280;5663;50.864;12.096;2023-04-19T00:54:34;100205.22;;;10.98;77.37
11212;BME280;5663;50.864;12.096;2023-04-19T00:57:03;100222.28;;;11.05;77.38
11212;BME280;5663;50.864;12.096;2023-04-19T00:59:32;100209.34;;;11.03;77.11
11212;BME280;5663;50.864;12.096;2023-04-19T01:02:01;100215.34;;;11.05;77.20
11212;BME280;5663;50.864;12.096;2023-04-19T01:04:30;100209.25;;;11.05;77.07
11212;BME280;5663;50.864;12.096;2023-04-19T01:06:58;100216.97;;;11.08;77.08
11212;BME280;5663;50.864;12.096;2023-04-19T01:09:26;100212.59;;;11.08;76.95
11212;BME280;5663;50.864;12.096;2023-04-19T01:11:54;100216.97;;;11.08;76.89
11212;BME280;5663;50.864;12.096;2023-04-19T01:14:22;100212.78;;;11.04;76.83
11212;BME280;5663;50.864;12.096;2023-04-19T01:16:51;100207.75;;;10.99;77.08
11212;BME280;5663;50.864;12.096;2023-04-19T01:19:19;100203.50;;;10.97;77.09
11212;BME280;5663;50.864;12.096;2023-04-19T01:21:48;100202.00;;;10.91;76.59
11212;BME280;5663;50.864;12.096;2023-04-19T01:24:19;100200.38;;;10.89;76.30
11212;BME280;5663;50.864;12.096;2023-04-19T01:26:46;100203.25;;;10.81;75.96
11212;BME280;5663;50.864;12.096;2023-04-19T01:29:16;100198.22;;;10.76;75.74
11212;BME280;5663;50.864;12.096;2023-04-19T01:31:47;100202.66;;;10.74;75.43
11212;BME280;5663;50.864;12.096;2023-04-19T01:34:18;100203.63;;;10.72;75.08
11212;BME280;5663;50.864;12.096;2023-04-19T01:36:48;100195.09;;;10.68;74.91
11212;BME280;5663;50.864;12.096;2023-04-19T01:39:16;100197.69;;;10.68;74.90
11212;BME280;5663;50.864;12.096;2023-04-19T01:41:45;100194.97;;;10.71;74.71
11212;BME280;5663;50.864;12.096;2023-04-19T01:44:15;100193.94;;;10.75;74.84
11212;BME280;5663;50.864;12.096;2023-04-19T01:46:43;100197.34;;;10.77;74.84
11212;BME280;5663;50.864;12.096;2023-04-19T01:49:12;100196.63;;;10.74;74.92
11212;BME280;5663;50.864;12.096;2023-04-19T01:51:39;100202.66;;;10.74;75.24
11212;BME280;5663;50.864;12.096;2023-04-19T01:54:07;100189.00;;;10.69;75.32
11212;BME280;5663;50.864;12.096;2023-04-19T01:56:35;100199.25;;;10.72;75.08
11212;BME280;5663;50.864;12.096;2023-04-19T01:59:04;100192.38;;;10.71;75.00
11212;BME280;5663;50.864;12.096;2023-04-19T02:01:32;100192.47;;;10.68;75.13
11212;BME280;5663;50.864;12.096;2023-04-19T02:04:01;100195.25;;;10.64;75.21
11212;BME280;5663;50.864;12.096;2023-04-19T02:06:29;100174.06;;;10.51;75.00
11212;BME280;5663;50.864;12.096;2023-04-19T02:08:58;100174.19;;;10.48;74.93
11212;BME280;5663;50.864;12.096;2023-04-19T02:11:26;100182.66;;;10.53;74.74
11212;BME280;5663;50.864;12.096;2023-04-19T02:13:54;100165.88;;;10.38;74.24
11212;BME280;5663;50.864;12.096;2023-04-19T02:16:23;100186.28;;;10.49;74.46
11212;BME280;5663;50.864;12.096;2023-04-19T02:18:51;100184.66;;;10.46;74.17
11212;BME280;5663;50.864;12.096;2023-04-19T02:21:19;100186.34;;;10.47;73.91
11212;BME280;5663;50.864;12.096;2023-04-19T02:23:46;100186.41;;;10.46;73.69
11212;BME280;5663;50.864;12.096;2023-04-19T02:26:14;100187.28;;;10.45;73.54
11212;BME280;5663;50.864;12.096;2023-04-19T02:28:42;100183.06;;;10.42;73.49
11212;BME280;5663;50.864;12.096;2023-04-19T02:31:11;100172.94;;;10.34;73.28
11212;BME280;5663;50.864;12.096;2023-04-19T02:33:40;100186.91;;;10.32;73.26
11212;BME280;5663;50.864;12.096;2023-04-19T02:36:08;100188.00;;;10.26;73.41
11212;BME280;5663;50.864;12.096;2023-04-19T02:38:36;100183.78;;;10.22;73.18
11212;BME280;5663;50.864;12.096;2023-04-19T02:41:03;100183.06;;;10.17;73.12
11212;BME280;5663;50.864;12.096;2023-04-19T02:43:31;100179.63;;;10.17;72.89
11212;BME280;5663;50.864;12.096;2023-04-19T02:45:59;100174.13;;;10.01;72.96
11212;BME280;5663;50.864;12.096;2023-04-19T02:48:27;100183.50;;;10.05;72.51
11212;BME280;5663;50.864;12.096;2023-04-19T02:50:56;100177.56;;;10.01;72.22
11212;BME280;5663;50.864;12.096;2023-04-19T02:53:24;100184.66;;;9.98;71.91
11212;BME280;5663;50.864;12.096;2023-04-19T02:55:52;100171.19;;;9.86;71.94
11212;BME280;5663;50.864;12.096;2023-04-19T02:58:19;100175.28;;;9.94;72.37
11212;BME280;5663;50.864;12.096;2023-04-19T03:00:47;100172.69;;;9.94;71.92
11212;BME280;5663;50.864;12.096;2023-04-19T03:03:15;100176.28;;;9.90;71.47
11212;BME280;5663;50.864;12.096;2023-04-19T03:05:42;100177.31;;;9.84;71.50
11212;BME280;5663;50.864;12.096;2023-04-19T03:08:12;100178.41;;;9.78;71.54
11212;BME280;5663;50.864;12.096;2023-04-19T03:10:40;100180.28;;;9.73;71.72
11212;BME280;5663;50.864;12.096;2023-04-19T03:13:07;100144.78;;;9.49;71.80
11212;BME280;5663;50.864;12.096;2023-04-19T03:15:35;100143.09;;;9.48;71.70
11212;BME280;5663;50.864;12.096;2023-04-19T03:18:03;100170.31;;;9.61;71.49
11212;BME280;5663;50.864;12.096;2023-04-19T03:20:31;100168.72;;;9.57;71.59
11212;BME280;5663;50.864;12.096;2023-04-19T03:22:59;100165.28;;;9.56;71.34
11212;BME280;5663;50.864;12.096;2023-04-19T03:25:28;100153.47;;;9.48;71.39
11212;BME280;5663;50.864;12.096;2023-04-19T03:27:57;100156.88;;;9.50;71.86
11212;BME280;5663;50.864;12.096;2023-04-19T03:30:25;100169.97;;;9.47;71.87
11212;BME280;5663;50.864;12.096;2023-04-19T03:32:52;100169.16;;;9.45;71.75
11212;BME280;5663;50.864;12.096;2023-04-19T03:35:20;100162.34;;;9.41;71.53
11212;BME280;5663;50.864;12.096;2023-04-19T03:37:51;100158.97;;;9.38;71.59
11212;BME280;5663;50.864;12.096;2023-04-19T03:40:19;100143.06;;;9.23;71.69
11212;BME280;5663;50.864;12.096;2023-04-19T03:42:49;100161.84;;;9.29;71.79
11212;BME280;5663;50.864;12.096;2023-04-19T03:45:17;100154.19;;;9.26;71.40
11212;BME280;5663;50.864;12.096;2023-04-19T03:47:44;100143.25;;;9.17;71.29
11212;BME280;5663;50.864;12.096;2023-04-19T03:50:12;100106.88;;;8.92;72.01
11212;BME280;5663;50.864;12.096;2023-04-19T03:52:40;100155.28;;;9.19;71.58
11212;BME280;5663;50.864;12.096;2023-04-19T03:55:09;100152.78;;;9.16;72.06
11212;BME280;5663;50.864;12.096;2023-04-19T03:57:37;100152.88;;;9.13;71.53
11212;BME280;5663;50.864;12.096;2023-04-19T04:00:08;100155.59;;;9.10;71.83
11212;BME280;5663;50.864;12.096;2023-04-19T04:02:37;100157.38;;;9.08;72.26
11212;BME280;5663;50.864;12.096;2023-04-19T04:05:05;100154.03;;;9.04;72.25
11212;BME280;5663;50.864;12.096;2023-04-19T04:07:33;100149.81;;;9.02;72.30
11212;BME280;5663;50.864;12.096;2023-04-19T04:10:01;100147.44;;;8.94;72.71
11212;BME280;5663;50.864;12.096;2023-04-19T04:12:29;100144.19;;;8.87;72.63
11212;BME280;5663;50.864;12.096;2023-04-19T04:14:57;100147.56;;;8.89;73.12
11212;BME280;5663;50.864;12.096;2023-04-19T04:17:26;100158.94;;;8.85;72.92
11212;BME280;5663;50.864;12.096;2023-04-19T04:19:54;100165.13;;;8.81;72.58
11212;BME280;5663;50.864;12.096;2023-04-19T04:22:22;100167.00;;;8.78;73.52
11212;BME280;5663;50.864;12.096;2023-04-19T04:24:49;100164.41;;;8.76;73.15
11212;BME280;5663;50.864;12.096;2023-04-19T04:27:19;100165.19;;;8.80;73.18
11212;BME280;5663;50.864;12.096;2023-04-19T04:29:46;100164.34;;;8.79;73.39
11212;BME280;5663;50.864;12.096;2023-04-19T04:32:15;100166.03;;;8.80;73.20
11212;BME280;5663;50.864;12.096;2023-04-19T04:34:45;100166.09;;;8.77;73.22
11212;BME280;5663;50.864;12.096;2023-04-19T04:37:12;100162.66;;;8.78;73.02
11212;BME280;5663;50.864;12.096;2023-04-19T04:39:40;100157.53;;;8.75;73.28
11212;BME280;5663;50.864;12.096;2023-04-19T04:42:08;100161.03;;;8.74;73.42
11212;BME280;5663;50.864;12.096;2023-04-19T04:44:36;100099.06;;;8.37;73.30
11212;BME280;5663;50.864;12.096;2023-04-19T04:47:03;100168.84;;;8.73;73.52
11212;BME280;5663;50.864;12.096;2023-04-19T04:49:32;100165.50;;;8.69;73.31
11212;BME280;5663;50.864;12.096;2023-04-19T04:52:01;100161.31;;;8.65;73.16
11212;BME280;5663;50.864;12.096;2023-04-19T04:54:28;100166.47;;;8.65;73.15
11212;BME280;5663;50.864;12.096;2023-04-19T04:56:57;100161.31;;;8.65;73.12
11212;BME280;5663;50.864;12.096;2023-04-19T04:59:24;100163.03;;;8.66;73.02
11212;BME280;5663;50.864;12.096;2023-04-19T05:01:52;100148.47;;;8.60;73.02
11212;BME280;5663;50.864;12.096;2023-04-19T05:04:20;100159.66;;;8.62;73.14
11212;BME280;5663;50.864;12.096;2023-04-19T05:06:47;100161.50;;;8.59;72.41
11212;BME280;5663;50.864;12.096;2023-04-19T05:09:17;100163.38;;;8.54;72.68
11212;BME280;5663;50.864;12.096;2023-04-19T05:11:44;100164.38;;;8.50;72.07
11212;BME280;5663;50.864;12.096;2023-04-19T05:14:12;100154.97;;;8.46;72.30
11212;BME280;5663;50.864;12.096;2023-04-19T05:16:41;100157.53;;;8.47;72.02
11212;BME280;5663;50.864;12.096;2023-04-19T05:19:10;100160.06;;;8.49;72.48
11212;BME280;5663;50.864;12.096;2023-04-19T05:21:38;100150.91;;;8.37;71.45
11212;BME280;5663;50.864;12.096;2023-04-19T05:24:06;100165.44;;;8.43;72.00
11212;BME280;5663;50.864;12.096;2023-04-19T05:26:36;100167.41;;;8.33;71.42
11212;BME280;5663;50.864;12.096;2023-04-19T05:29:04;100133.59;;;8.08;71.62
11212;BME280;5663;50.864;12.096;2023-04-19T05:31:32;100165.03;;;8.25;71.61
11212;BME280;5663;50.864;12.096;2023-04-19T05:34:00;100132.91;;;8.01;71.81
11212;BME280;5663;50.864;12.096;2023-04-19T05:36:28;100154.03;;;8.17;71.01
11212;BME280;5663;50.864;12.096;2023-04-19T05:38:57;100149.84;;;8.13;71.45
11212;BME280;5663;50.864;12.096;2023-04-19T05:41:25;100144.66;;;8.13;71.44
11212;BME280;5663;50.864;12.096;2023-04-19T05:43:54;100130.31;;;8.01;71.58
11212;BME280;5663;50.864;12.096;2023-04-19T05:46:22;100154.03;;;8.17;71.72
11212;BME280;5663;50.864;12.096;2023-04-19T05:48:49;100148.16;;;8.12;71.31
11212;BME280;5663;50.864;12.096;2023-04-19T05:51:17;100159.31;;;8.14;70.52
11212;BME280;5663;50.864;12.096;2023-04-19T05:53:45;100147.38;;;8.08;70.83
11212;BME280;5663;50.864;12.096;2023-04-19T05:56:12;100161.91;;;8.14;70.81
11212;BME280;5663;50.864;12.096;2023-04-19T05:58:40;100155.16;;;8.08;70.26
11212;BME280;5663;50.864;12.096;2023-04-19T06:01:09;100150.94;;;8.06;70.26
11212;BME280;5663;50.864;12.096;2023-04-19T06:03:37;100153.41;;;8.09;70.73
11212;BME280;5663;50.864;12.096;2023-04-19T06:06:05;100148.97;;;8.14;70.68
11212;BME280;5663;50.864;12.096;2023-04-19T06:08:33;100156.75;;;8.12;69.74
11212;BME280;5663;50.864;12.096;2023-04-19T06:11:00;100152.44;;;8.13;69.30
11212;BME280;5663;50.864;12.096;2023-04-19T06:13:28;100155.97;;;8.10;69.18
11212;BME280;5663;50.864;12.096;2023-04-19T06:15:56;100157.78;;;8.07;69.06
11212;BME280;5663;50.864;12.096;2023-04-19T06:18:26;100121.41;;;7.80;69.02
11212;BME280;5663;50.864;12.096;2023-04-19T06:20:53;100154.31;;;8.08;68.83
11212;BME280;5663;50.864;12.096;2023-04-19T06:23:21;100160.38;;;8.07;68.48
11212;BME280;5663;50.864;12.096;2023-04-19T06:25:51;100163.75;;;8.10;68.83
11212;BME280;5663;50.864;12.096;2023-04-19T06:28:19;100159.41;;;8.11;68.05
11212;BME280;5663;50.864;12.096;2023-04-19T06:30:47;100154.22;;;8.11;67.52
11212;BME280;5663;50.864;12.096;2023-04-19T06:33:14;100160.31;;;8.10;66.92
11212;BME280;5663;50.864;12.096;2023-04-19T06:35:44;100137.44;;;7.93;67.39
11212;BME280;5663;50.864;12.096;2023-04-19T06:38:11;100168.09;;;8.10;67.09
11212;BME280;5663;50.864;12.096;2023-04-19T06:40:39;100161.09;;;8.12;67.28
11212;BME280;5663;50.864;12.096;2023-04-19T06:43:07;100165.84;;;8.27;67.53
11212;BME280;5663;50.864;12.096;2023-04-19T06:45:35;100161.28;;;8.35;67.54
11212;BME280;5663;50.864;12.096;2023-04-19T06:48:03;100162.84;;;8.43;67.21
11212;BME280;5663;50.864;12.096;2023-04-19T06:50:31;100166.97;;;8.50;66.03
11212;BME280;5663;50.864;12.096;2023-04-19T06:53:00;100173.00;;;8.50;66.07
11212;BME280;5663;50.864;12.096;2023-04-19T06:55:28;100161.03;;;8.46;65.32
11212;BME280;5663;50.864;12.096;2023-04-19T06:57:56;100158.38;;;8.48;66.65
11212;BME280;5663;50.864;12.096;2023-04-19T07:00:24;100163.28;;;8.57;66.33
11212;BME280;5663;50.864;12.096;2023-04-19T07:02:52;100161.06;;;8.73;66.19
11212;BME280;5663;50.864;12.096;2023-04-19T07:05:20;100154.03;;;8.78;65.69
11212;BME280;5663;50.864;12.096;2023-04-19T07:07:47;100154.66;;;8.84;64.80
11212;BME280;5663;50.864;12.096;2023-04-19T07:10:17;100156.78;;;9.00;64.90
11212;BME280;5663;50.864;12.096;2023-04-19T07:12:45;100154.72;;;9.09;63.48
11212;BME280;5663;50.864;12.096;2023-04-19T07:15:13;100149.28;;;9.17;63.55
11212;BME280;5663;50.864;12.096;2023-04-19T07:17:40;100131.00;;;9.22;63.78
11212;BME280;5663;50.864;12.096;2023-04-19T07:20:09;100156.97;;;9.47;62.93
11212;BME280;5663;50.864;12.096;2023-04-19T07:22:37;100142.34;;;9.44;62.79
11212;BME280;5663;50.864;12.096;2023-04-19T07:25:05;100131.78;;;9.49;62.51
11212;BME280;5663;50.864;12.096;2023-04-19T07:27:34;100118.59;;;9.55;61.92
11212;BME280;5663;50.864;12.096;2023-04-19T07:30:02;100135.13;;;9.77;60.99
11212;BME280;5663;50.864;12.096;2023-04-19T07:32:30;100138.53;;;9.79;58.63
11212;BME280;5663;50.864;12.096;2023-04-19T07:34:57;100137.63;;;9.80;58.65
11212;BME280;5663;50.864;12.096;2023-04-19T07:37:25;100141.03;;;9.82;57.78
11212;BME280;5663;50.864;12.096;2023-04-19T07:39:53;100104.53;;;9.62;57.88
11212;BME280;5663;50.864;12.096;2023-04-19T07:42:21;100136.16;;;9.97;57.54
11212;BME280;5663;50.864;12.096;2023-04-19T07:44:50;100129.81;;;10.05;56.36
11212;BME280;5663;50.864;12.096;2023-04-19T07:47:17;100129.19;;;9.99;55.71
11212;BME280;5663;50.864;12.096;2023-04-19T07:49:45;100120.47;;;10.00;54.56
11212;BME280;5663;50.864;12.096;2023-04-19T07:52:13;100135.31;;;9.96;54.75
11212;BME280;5663;50.864;12.096;2023-04-19T07:54:40;100120.56;;;9.97;54.36
11212;BME280;5663;50.864;12.096;2023-04-19T07:57:08;100129.56;;;10.11;53.97
11212;BME280;5663;50.864;12.096;2023-04-19T07:59:36;100124.75;;;10.26;54.14
11212;BME280;5663;50.864;12.096;2023-04-19T08:02:05;100118.63;;;10.27;53.55
11212;BME280;5663;50.864;12.096;2023-04-19T08:04:33;100123.72;;;10.30;54.11
11212;BME280;5663;50.864;12.096;2023-04-19T08:07:02;100128.09;;;10.29;53.73
11212;BME280;5663;50.864;12.096;2023-04-19T08:09:32;100126.50;;;10.25;52.86
11212;BME280;5663;50.864;12.096;2023-04-19T08:11:59;100124.69;;;10.27;53.24
11212;BME280;5663;50.864;12.096;2023-04-19T08:14:27;100120.47;;;10.23;52.21
11212;BME280;5663;50.864;12.096;2023-04-19T08:16:58;100100.25;;;10.08;51.64
11212;BME280;5663;50.864;12.096;2023-04-19T08:19:27;100114.72;;;10.15;51.45
11212;BME280;5663;50.864;12.096;2023-04-19T08:21:55;100117.97;;;10.20;52.46
11212;BME280;5663;50.864;12.096;2023-04-19T08:24:23;100115.34;;;10.45;53.56
11212;BME280;5663;50.864;12.096;2023-04-19T08:26:50;100119.09;;;10.60;52.61
11212;BME280;5663;50.864;12.096;2023-04-19T08:29:19;100115.56;;;10.61;50.89
11212;BME280;5663;50.864;12.096;2023-04-19T08:31:47;100115.66;;;10.59;50.69
11212;BME280;5663;50.864;12.096;2023-04-19T08:34:15;100112.03;;;10.64;50.10
11212;BME280;5663;50.864;12.096;2023-04-19T08:36:44;100118.19;;;10.61;49.01
11212;BME280;5663;50.864;12.096;2023-04-19T08:39:12;100090.19;;;10.46;49.90
11212;BME280;5663;50.864;12.096;2023-04-19T08:41:40;100105.31;;;10.80;51.88
11212;BME280;5663;50.864;12.096;2023-04-19T08:44:09;100114.13;;;10.98;51.14
11212;BME280;5663;50.864;12.096;2023-04-19T08:46:38;100111.06;;;11.08;50.94
11212;BME280;5663;50.864;12.096;2023-04-19T08:49:07;100105.41;;;10.99;49.12
11212;BME280;5663;50.864;12.096;2023-04-19T08:51:38;100096.94;;;10.94;51.25
11212;BME280;5663;50.864;12.096;2023-04-19T08:54:08;100086.94;;;11.05;51.12
11212;BME280;5663;50.864;12.096;2023-04-19T08:56:37;100089.94;;;11.37;50.24
11212;BME280;5663;50.864;12.096;2023-04-19T08:59:05;100081.81;;;11.44;49.36
11212;BME280;5663;50.864;12.096;2023-04-19T09:01:32;100086.66;;;11.72;52.00
11212;BME280;5663;50.864;12.096;2023-04-19T09:04:01;100086.50;;;11.96;51.73
11212;BME280;5663;50.864;12.096;2023-04-19T09:06:28;100082.03;;;12.18;49.57
11212;BME280;5663;50.864;12.096;2023-04-19T09:09:15;100079.34;;;12.39;49.93
11212;BME280;5663;50.864;12.096;2023-04-19T09:11:43;100072.78;;;12.49;49.61
11212;BME280;5663;50.864;12.096;2023-04-19T09:14:13;100060.50;;;12.68;49.52
11212;BME280;5663;50.864;12.096;2023-04-19T09:16:42;100063.69;;;12.92;50.13
11212;BME280;5663;50.864;12.096;2023-04-19T09:19:10;100055.19;;;13.06;48.74
11212;BME280;5663;50.864;12.096;2023-04-19T09:21:38;100043.66;;;13.10;48.11
11212;BME280;5663;50.864;12.096;2023-04-19T09:24:07;100056.81;;;13.26;48.61
11212;BME280;5663;50.864;12.096;2023-04-19T09:26:36;100056.72;;;13.45;47.08
11212;BME280;5663;50.864;12.096;2023-04-19T09:29:05;100054.28;;;13.42;46.75
11212;BME280;5663;50.864;12.096;2023-04-19T09:31:35;100061.97;;;13.45;46.00
11212;BME280;5663;50.864;12.096;2023-04-19T09:34:14;100050.41;;;13.49;46.50
11212;BME280;5663;50.864;12.096;2023-04-19T09:36:42;100033.06;;;13.64;48.21
11212;BME280;5663;50.864;12.096;2023-04-19T09:39:10;100047.88;;;13.80;46.43
11212;BME280;5663;50.864;12.096;2023-04-19T09:41:51;100044.50;;;13.78;46.20
11212;BME280;5663;50.864;12.096;2023-04-19T09:44:19;100048.72;;;13.81;46.48
11212;BME280;5663;50.864;12.096;2023-04-19T09:46:47;100037.50;;;13.95;46.96
11212;BME280;5663;50.864;12.096;2023-04-19T09:49:18;100032.19;;;14.12;46.91
11212;BME280;5663;50.864;12.096;2023-04-19T09:51:50;100033.38;;;14.22;45.12
11212;BME280;5663;50.864;12.096;2023-04-19T09:54:19;100002.00;;;14.22;45.94
11212;BME280;5663;50.864;12.096;2023-04-19T09:56:47;100028.03;;;14.40;47.34
11212;BME280;5663;50.864;12.096;2023-04-19T09:59:16;100016.69;;;14.57;46.20
11212;BME280;5663;50.864;12.096;2023-04-19T10:01:46;100020.13;;;14.57;44.22
11212;BME280;5663;50.864;12.096;2023-04-19T10:04:14;100012.75;;;14.48;44.62
11212;BME280;5663;50.864;12.096;2023-04-19T10:06:47;100018.34;;;14.58;45.85
11212;BME280;5663;50.864;12.096;2023-04-19T10:09:17;99987.28;;;14.36;44.59
11212;BME280;5663;50.864;12.096;2023-04-19T10:11:47;100003.81;;;14.52;44.51
11212;BME280;5663;50.864;12.096;2023-04-19T10:14:23;99998.66;;;14.66;43.62
11212;BME280;5663;50.864;12.096;2023-04-19T10:16:53;99997.72;;;14.67;43.69
11212;BME280;5663;50.864;12.096;2023-04-19T10:19:22;100001.22;;;14.82;44.13
11212;BME280;5663;50.864;12.096;2023-04-19T10:21:52;99998.34;;;14.87;42.56
11212;BME280;5663;50.864;12.096;2023-04-19T10:24:19;99989.53;;;14.88;42.68
11212;BME280;5663;50.864;12.096;2023-04-19T10:27:08;100000.03;;;14.88;43.21
11212;BME280;5663;50.864;12.096;2023-04-19T10:29:58;100002.50;;;15.05;43.88
11212;BME280;5663;50.864;12.096;2023-04-19T10:32:27;99991.56;;;15.13;44.99
11212;BME280;5663;50.864;12.096;2023-04-19T10:35:00;100002.88;;;15.27;43.07
11212;BME280;5663;50.864;12.096;2023-04-19T10:37:30;99985.66;;;15.23;42.20
11212;BME280;5663;50.864;12.096;2023-04-19T10:39:58;99974.22;;;14.96;43.40
11212;BME280;5663;50.864;12.096;2023-04-19T10:45:44;99922.91;;;14.63;43.38
11212;BME280;5663;50.864;12.096;2023-04-19T10:48:31;99969.75;;;14.98;42.96
11212;BME280;5663;50.864;12.096;2023-04-19T10:51:01;99948.44;;;15.04;43.93
11212;BME280;5663;50.864;12.096;2023-04-19T10:53:51;99956.84;;;15.38;44.99
11212;BME280;5663;50.864;12.096;2023-04-19T10:56:21;99952.91;;;15.59;43.81
11212;BME280;5663;50.864;12.096;2023-04-19T10:59:17;99958.16;;;15.73;41.96
11212;BME280;5663;50.864;12.096;2023-04-19T11:01:57;99954.25;;;15.52;41.54
11212;BME280;5663;50.864;12.096;2023-04-19T11:04:57;99940.94;;;15.41;42.92
11212;BME280;5663;50.864;12.096;2023-04-19T11:07:25;99943.75;;;15.52;44.12
11212;BME280;5663;50.864;12.096;2023-04-19T11:09:54;99937.28;;;15.58;43.35
11212;BME280;5663;50.864;12.096;2023-04-19T11:12:22;99930.72;;;15.50;43.25
11212;BME280;5663;50.864;12.096;2023-04-19T11:14:51;99931.09;;;15.59;42.40
11212;BME280;5663;50.864;12.096;2023-04-19T11:17:22;99915.59;;;15.83;44.13
11212;BME280;5663;50.864;12.096;2023-04-19T11:19:54;99918.84;;;16.00;43.41
11212;BME280;5663;50.864;12.096;2023-04-19T11:22:34;99894.78;;;15.94;40.83
11212;BME280;5663;50.864;12.096;2023-04-19T11:25:07;99916.91;;;15.90;40.58
11212;BME280;5663;50.864;12.096;2023-04-19T11:27:36;99902.47;;;15.97;41.83
11212;BME280;5663;50.864;12.096;2023-04-19T11:30:06;99908.38;;;16.13;40.45
11212;BME280;5663;50.864;12.096;2023-04-19T11:32:36;99867.06;;;15.90;40.05
11212;BME280;5663;50.864;12.096;2023-04-19T11:35:05;99893.31;;;15.75;40.57
11212;BME280;5663;50.864;12.096;2023-04-19T11:37:34;99893.78;;;15.82;40.51
11212;BME280;5663;50.864;12.096;2023-04-19T11:40:04;99879.19;;;16.05;40.37
11212;BME280;5663;50.864;12.096;2023-04-19T11:42:33;99900.53;;;16.13;39.94
11212;BME280;5663;50.864;12.096;2023-04-19T11:45:02;99879.88;;;15.94;38.89
11212;BME280;5663;50.864;12.096;2023-04-19T11:47:32;99871.66;;;16.13;38.27
11212;BME280;5663;50.864;12.096;2023-04-19T11:50:36;99864.31;;;16.18;39.64
11212;BME280;5663;50.864;12.096;2023-04-19T11:53:12;99876.28;;;16.22;37.88
11212;BME280;5663;50.864;12.096;2023-04-19T11:55:42;99874.13;;;16.02;38.20
11212;BME280;5663;50.864;12.096;2023-04-19T11:58:26;99868.00;;;15.89;38.57
11212;BME280;5663;50.864;12.096;2023-04-19T12:01:04;99875.53;;;15.81;39.48
11212;BME280;5663;50.864;12.096;2023-04-19T12:03:33;99883.59;;;15.63;38.86
11212;BME280;5663;50.864;12.096;2023-04-19T12:06:02;99876.16;;;15.43;38.76
11212;BME280;5663;50.864;12.096;2023-04-19T12:08:34;99869.63;;;15.21;38.51
11212;BME280;5663;50.864;12.096;2023-04-19T12:11:05;99862.25;;;15.28;38.86
11212;BME280;5663;50.864;12.096;2023-04-19T12:13:34;99850.69;;;15.45;38.41
11212;BME280;5663;50.864;12.096;2023-04-19T12:16:05;99853.84;;;15.64;38.97
11212;BME280;5663;50.864;12.096;2023-04-19T12:18:44;99844.63;;;15.71;38.77
11212;BME280;5663;50.864;12.096;2023-04-19T12:21:25;99852.72;;;15.68;37.00
11212;BME280;5663;50.864;12.096;2023-04-19T12:23:56;99833.31;;;15.71;38.90
11212;BME280;5663;50.864;12.096;2023-04-19T12:26:26;99841.78;;;15.89;39.46
11212;BME280;5663;50.864;12.096;2023-04-19T12:28:54;99826.25;;;15.86;39.44
11212;BME280;5663;50.864;12.096;2023-04-19T12:31:22;99828.72;;;16.14;37.16
11212;BME280;5663;50.864;12.096;2023-04-19T12:33:51;99818.97;;;16.16;37.55
11212;BME280;5663;50.864;12.096;2023-04-19T12:36:19;99825.03;;;16.04;37.61
11212;BME280;5663;50.864;12.096;2023-04-19T12:38:48;99809.22;;;15.79;37.54
11212;BME280;5663;50.864;12.096;2023-04-19T12:41:18;99830.06;;;15.53;37.61
11212;BME280;5663;50.864;12.096;2023-04-19T12:43:46;99824.50;;;15.31;38.06
11212;BME280;5663;50.864;12.096;2023-04-19T12:46:13;99802.81;;;15.14;38.94
11212;BME280;5663;50.864;12.096;2023-04-19T12:48:41;99818.53;;;15.14;38.92
11212;BME280;5663;50.864;12.096;2023-04-19T12:51:08;99824.56;;;15.02;38.98
11212;BME280;5663;50.864;12.096;2023-04-19T12:53:36;99822.50;;;14.78;39.36
11212;BME280;5663;50.864;12.096;2023-04-19T12:56:05;99825.66;;;14.55;41.13
11212;BME280;5663;50.864;12.096;2023-04-19T12:58:33;99831.75;;;14.56;41.90
11212;BME280;5663;50.864;12.096;2023-04-19T13:01:01;99819.50;;;14.70;43.00
11212;BME280;5663;50.864;12.096;2023-04-19T13:03:28;99810.34;;;14.77;41.10
11212;BME280;5663;50.864;12.096;2023-04-19T13:05:57;99819.78;;;14.80;41.47
11212;BME280;5663;50.864;12.096;2023-04-19T13:08:26;99820.66;;;14.81;41.32